Time;durP1;ratioP1;P1;durP2;ratioP2;P2;SDS_P1;SDS_P2;PMS_P1;PMS_P2;Temp;Humidity;BMP_temperature;BMP_pressure;BME280_temperature;BME280_humidity;BME280_pressure;Samples;Min_cycle;Max_cycle;Signal;HPM_P1;HPM_P2
2022/07/18 00:00:15;;;;;;;20.27;18.57;;;;;;;10.90;nan;100043.00;2074120;28;20275;-76
2022/07/18 00:01:16;;;;;;;20.48;18.33;;;;;;;10.90;nan;100035.00;2065050;28;20248;-76
2022/07/18 00:02:17;;;;;;;20.43;18.33;;;;;;;10.89;nan;100038.75;2065207;28;20196;-76
2022/07/18 00:03:18;;;;;;;20.38;18.60;;;;;;;10.90;nan;100045.66;2065113;28;20730;-76
2022/07/18 00:04:20;;;;;;;20.57;18.63;;;;;;;10.88;nan;100043.28;2065257;28;20569;-76
2022/07/18 00:05:21;;;;;;;19.60;17.98;;;;;;;10.86;nan;100036.59;2065118;28;20207;-76
2022/07/18 00:06:23;;;;;;;20.48;18.52;;;;;;;10.85;nan;100037.66;2064766;28;20291;-76
2022/07/18 00:07:25;;;;;;;21.30;19.10;;;;;;;10.85;nan;100046.47;2065122;28;20281;-76
2022/07/18 00:08:26;;;;;;;21.10;18.90;;;;;;;10.84;nan;100041.41;2065390;28;20228;-76
2022/07/18 00:09:27;;;;;;;20.58;18.73;;;;;;;10.82;nan;100043.56;2073879;28;20197;-76
2022/07/18 00:10:29;;;;;;;21.17;19.27;;;;;;;10.79;nan;100044.13;2065476;28;20205;-76
2022/07/18 00:11:29;;;;;;;20.80;18.95;;;;;;;10.78;nan;100053.22;2065288;28;20192;-77
2022/07/18 00:12:31;;;;;;;20.73;18.90;;;;;;;10.76;nan;100050.78;2065325;28;20671;-76
2022/07/18 00:13:31;;;;;;;21.05;19.05;;;;;;;10.72;nan;100039.88;2065188;28;20275;-77
2022/07/18 00:14:34;;;;;;;19.90;18.30;;;;;;;10.72;nan;100045.22;2065010;28;20722;-75
2022/07/18 00:15:34;;;;;;;21.13;19.02;;;;;;;10.73;nan;100046.78;2065211;28;20225;-76
2022/07/18 00:16:36;;;;;;;21.57;19.50;;;;;;;10.72;nan;100044.41;2065155;28;20197;-76
2022/07/18 00:17:37;;;;;;;20.88;19.17;;;;;;;10.74;nan;100042.25;2065411;28;20236;-76
2022/07/18 00:18:39;;;;;;;21.33;18.98;;;;;;;10.74;nan;100043.06;2074069;28;20188;-76
2022/07/18 00:19:40;;;;;;;21.05;18.92;;;;;;;10.76;nan;100048.13;2073905;28;20188;-76
2022/07/18 00:20:42;;;;;;;21.13;19.27;;;;;;;10.76;nan;100046.25;2065311;28;20201;-76
2022/07/18 00:21:43;;;;;;;20.42;18.70;;;;;;;10.78;nan;100048.66;2065030;28;20205;-76
2022/07/18 00:22:46;;;;;;;21.87;19.77;;;;;;;10.79;nan;100044.13;2065117;28;20233;-76
2022/07/18 00:23:46;;;;;;;21.92;19.88;;;;;;;10.82;nan;100051.56;2065300;28;20197;-76
2022/07/18 00:24:48;;;;;;;20.67;18.93;;;;;;;10.83;nan;100048.63;2065446;28;20276;-76
2022/07/18 00:25:49;;;;;;;20.70;18.83;;;;;;;10.85;nan;100045.69;2065107;28;20374;-76
2022/07/18 00:26:50;;;;;;;20.60;18.80;;;;;;;10.83;nan;100042.50;2074018;28;20215;-76
2022/07/18 00:27:51;;;;;;;21.10;19.17;;;;;;;10.83;nan;100050.50;2065399;28;20236;-76
2022/07/18 00:28:53;;;;;;;21.40;19.50;;;;;;;10.78;nan;100045.19;2065180;28;20193;-76
2022/07/18 00:29:54;;;;;;;21.42;19.27;;;;;;;10.80;nan;100051.06;2073798;28;20275;-76
2022/07/18 00:30:56;;;;;;;21.83;19.77;;;;;;;10.76;nan;100046.25;2073838;28;20199;-76
2022/07/18 00:31:57;;;;;;;21.90;19.77;;;;;;;10.78;nan;100054.00;2064986;28;20217;-76
2022/07/18 00:32:58;;;;;;;21.47;19.63;;;;;;;10.75;nan;100054.53;2065111;28;20201;-76
2022/07/18 00:33:59;;;;;;;22.02;20.02;;;;;;;10.74;nan;100058.28;2065100;28;20713;-77
2022/07/18 00:35:00;;;;;;;21.50;19.60;;;;;;;10.70;nan;100058.03;2073961;28;20575;-76
2022/07/18 00:36:01;;;;;;;21.13;19.33;;;;;;;10.70;nan;100046.56;2075035;28;20825;-76
2022/07/18 00:37:03;;;;;;;21.97;19.70;;;;;;;10.69;nan;100051.09;2075311;28;20615;-76
2022/07/18 00:38:05;;;;;;;21.67;19.52;;;;;;;10.67;nan;100047.88;2075525;28;20197;-77
2022/07/18 00:39:07;;;;;;;22.52;19.98;;;;;;;10.69;nan;100059.09;2066534;28;20192;-76
2022/07/18 00:40:09;;;;;;;21.92;19.70;;;;;;;10.68;nan;100057.47;2066673;28;20277;-76
2022/07/18 00:41:15;;;;;;;21.50;19.77;;;;;;;10.68;nan;100054.81;2075393;28;20658;-76
2022/07/18 00:42:15;;;;;;;21.48;19.60;;;;;;;10.69;nan;100050.31;2075317;28;20627;-76
2022/07/18 00:43:17;;;;;;;22.90;20.03;;;;;;;10.69;nan;100051.09;2075259;28;20555;-76
2022/07/18 00:44:19;;;;;;;21.58;19.45;;;;;;;10.68;nan;100060.16;2066458;28;20197;-76
2022/07/18 00:45:21;;;;;;;20.98;19.08;;;;;;;10.64;nan;100053.78;2066615;28;20193;-76
2022/07/18 00:46:23;;;;;;;22.75;20.48;;;;;;;10.62;nan;100047.13;2066513;28;20326;-76
2022/07/18 00:47:24;;;;;;;30.48;19.55;;;;;;;10.58;nan;100049.50;2058455;28;20189;-76
2022/07/18 00:48:26;;;;;;;22.15;20.13;;;;;;;10.60;nan;100051.91;2066531;28;20276;-76
2022/07/18 00:49:28;;;;;;;21.90;19.90;;;;;;;10.56;nan;100054.31;2075374;28;20220;-76
2022/07/18 00:50:28;;;;;;;21.45;19.65;;;;;;;10.55;nan;100052.72;2075275;28;20238;-76
2022/07/18 00:51:30;;;;;;;21.97;19.73;;;;;;;10.54;nan;100048.47;2074817;28;20216;-76
2022/07/18 00:52:36;;;;;;;22.40;20.17;;;;;;;10.54;nan;100051.13;2075162;28;20661;-76
2022/07/18 00:53:39;;;;;;;24.58;20.00;;;;;;;10.53;nan;100054.88;2075304;28;20184;-76
2022/07/18 00:54:40;;;;;;;22.15;20.02;;;;;;;10.53;nan;100051.41;2075148;28;20203;-76
2022/07/18 00:55:44;;;;;;;23.70;20.43;;;;;;;10.54;nan;100058.34;2075258;28;20195;-76
2022/07/18 00:56:48;;;;;;;22.35;20.15;;;;;;;10.54;nan;100051.13;2075144;28;20220;-76
2022/07/18 00:57:49;;;;;;;21.85;19.85;;;;;;;10.53;nan;100046.06;2075141;28;20188;-75
2022/07/18 00:58:50;;;;;;;21.58;19.45;;;;;;;10.53;nan;100052.22;2075355;28;20200;-76
2022/07/18 01:02:32;;;;;;;21.95;19.77;;;;;;;10.55;nan;100049.25;2066359;28;20203;-76
2022/07/18 01:03:34;;;;;;;22.40;20.30;;;;;;;10.54;nan;100051.13;2066482;28;20208;-75
2022/07/18 01:04:36;;;;;;;22.80;20.52;;;;;;;10.56;nan;100046.31;2066306;28;20261;-76
2022/07/18 01:05:38;;;;;;;22.00;20.00;;;;;;;10.56;nan;100045.53;2058320;28;20289;-76
2022/07/18 01:06:43;;;;;;;21.33;19.42;;;;;;;10.58;nan;100046.84;2066258;28;20668;-76
2022/07/18 01:07:44;;;;;;;21.48;19.63;;;;;;;10.61;nan;100038.31;2075077;28;20271;-76
2022/07/18 01:08:47;;;;;;;21.70;19.60;;;;;;;10.59;nan;100039.63;2066391;28;20197;-76
2022/07/18 01:09:47;;;;;;;22.20;19.90;;;;;;;10.57;nan;100037.25;2066480;28;20204;-76
2022/07/18 01:10:51;;;;;;;20.80;18.90;;;;;;;10.56;nan;100034.84;2066264;28;20197;-76
2022/07/18 01:11:52;;;;;;;21.70;19.50;;;;;;;10.53;nan;100033.53;2058450;28;20241;-76
2022/07/18 01:12:53;;;;;;;21.83;19.73;;;;;;;10.52;nan;100029.25;2066590;28;20189;-75
2022/07/18 01:13:54;;;;;;;24.50;19.52;;;;;;;10.49;nan;100032.47;2075050;28;20189;-76
2022/07/18 01:14:57;;;;;;;21.10;19.00;;;;;;;10.47;nan;100030.06;2074858;28;20208;-76
2022/07/18 01:15:58;;;;;;;20.50;18.65;;;;;;;10.43;nan;100022.88;2075087;28;20544;-76
2022/07/18 01:17:00;;;;;;;20.30;18.50;;;;;;;10.42;nan;100029.28;2075039;28;20192;-77
2022/07/18 01:18:01;;;;;;;21.45;19.33;;;;;;;10.39;nan;100030.63;2066207;28;20655;-76
2022/07/18 01:19:03;;;;;;;21.30;19.47;;;;;;;10.34;nan;100022.66;2066331;28;20541;-76
2022/07/18 01:20:06;;;;;;;21.15;19.15;;;;;;;10.37;nan;100034.63;2075098;28;20188;-76
2022/07/18 01:21:10;;;;;;;21.05;19.20;;;;;;;10.31;nan;100031.16;2074541;28;20598;-76
2022/07/18 01:22:12;;;;;;;21.88;19.88;;;;;;;10.31;nan;100028.50;2075019;28;20246;-76
2022/07/18 01:23:14;;;;;;;21.00;19.20;;;;;;;10.29;nan;100024.50;2065877;28;20205;-76
2022/07/18 01:24:15;;;;;;;22.13;19.27;;;;;;;10.27;nan;100032.00;2058550;28;20753;-76
2022/07/18 01:25:17;;;;;;;23.30;19.87;;;;;;;10.26;nan;100027.72;2066319;28;20601;-76
2022/07/18 01:26:17;;;;;;;20.60;18.90;;;;;;;10.25;nan;100029.59;2073997;28;20208;-76
2022/07/18 01:27:23;;;;;;;21.40;19.60;;;;;;;10.24;nan;100025.31;2074549;28;20194;-77
2022/07/18 01:28:23;;;;;;;21.30;19.13;;;;;;;10.20;nan;100025.03;2074197;28;20206;-76
2022/07/18 01:29:25;;;;;;;21.53;19.53;;;;;;;10.20;nan;100026.91;2066260;28;20647;-77
2022/07/18 01:30:26;;;;;;;22.33;19.83;;;;;;;10.19;nan;100022.63;2058407;28;20312;-76
2022/07/18 01:31:33;;;;;;;21.55;19.05;;;;;;;10.18;nan;100019.16;2066200;28;20259;-76
2022/07/18 01:32:35;;;;;;;20.90;18.88;;;;;;;10.16;nan;100018.66;2074906;28;20199;-76
2022/07/18 01:33:37;;;;;;;22.90;20.77;;;;;;;10.16;nan;100025.81;2074902;28;20206;-77
2022/07/18 01:34:38;;;;;;;21.55;19.75;;;;;;;10.14;nan;100019.97;2066113;28;20700;-76
2022/07/18 01:35:40;;;;;;;21.45;19.42;;;;;;;10.13;nan;100023.69;2066303;28;20185;-76
2022/07/18 01:36:45;;;;;;;21.83;19.67;;;;;;;10.11;nan;100021.31;2065701;28;20278;-78
2022/07/18 01:37:51;;;;;;;22.60;20.52;;;;;;;10.06;nan;100015.97;2066074;28;20204;-77
2022/07/18 01:38:55;;;;;;;21.27;19.38;;;;;;;10.08;nan;100021.84;2067011;28;20181;-78
2022/07/18 01:39:56;;;;;;;21.83;19.98;;;;;;;10.07;nan;100017.56;2074830;28;20254;-75
2022/07/18 01:40:58;;;;;;;22.20;20.10;;;;;;;10.08;nan;100019.19;2075026;28;20235;-75
2022/07/18 01:42:02;;;;;;;21.48;19.45;;;;;;;10.05;nan;100014.38;2066323;28;20757;-75
2022/07/18 01:43:04;;;;;;;22.92;20.65;;;;;;;10.06;nan;100020.50;2058040;28;20209;-75
2022/07/18 01:44:04;;;;;;;23.77;21.58;;;;;;;10.04;nan;100012.78;2066123;28;20189;-75
2022/07/18 01:45:07;;;;;;;23.03;21.00;;;;;;;10.05;nan;100017.03;2066068;28;20199;-77
2022/07/18 01:46:09;;;;;;;23.98;20.77;;;;;;;10.07;nan;100019.44;2065363;28;20193;-77
2022/07/18 01:47:11;;;;;;;23.48;21.20;;;;;;;10.10;nan;100018.91;2065774;28;20193;-77
2022/07/18 01:48:12;;;;;;;23.05;20.80;;;;;;;10.12;nan;100019.44;2074833;28;20200;-77
2022/07/18 01:49:14;;;;;;;22.10;20.00;;;;;;;10.15;nan;100019.69;2074721;28;20219;-78
2022/07/18 01:50:15;;;;;;;23.33;20.75;;;;;;;10.15;nan;100017.03;2065969;28;20227;-77
2022/07/18 01:51:17;;;;;;;23.38;21.00;;;;;;;10.16;nan;100015.16;2057673;28;20225;-77
2022/07/18 01:52:26;;;;;;;21.95;19.98;;;;;;;10.17;nan;100020.25;2066145;28;20743;-77
2022/07/18 01:53:28;;;;;;;21.70;19.95;;;;;;;10.19;nan;100020.75;2066021;28;20651;-77
2022/07/18 01:54:33;;;;;;;22.48;20.58;;;;;;;10.19;nan;100007.44;2065979;28;20634;-76
2022/07/18 01:55:35;;;;;;;23.23;21.02;;;;;;;10.19;nan;100010.09;2066815;28;20173;-78
2022/07/18 01:56:35;;;;;;;23.33;21.13;;;;;;;10.18;nan;100005.84;2074976;28;20254;-77
2022/07/18 01:57:38;;;;;;;22.90;20.90;;;;;;;10.24;nan;100011.19;2074680;28;20238;-77
2022/07/18 01:58:38;;;;;;;22.50;20.50;;;;;;;10.23;nan;100010.38;2074848;28;20197;-78
2022/07/18 01:59:40;;;;;;;22.70;20.70;;;;;;;10.24;nan;100009.31;2065913;28;20203;-78
2022/07/18 02:00:41;;;;;;;23.33;20.75;;;;;;;10.25;nan;100010.94;2066029;28;20189;-77
2022/07/18 02:01:43;;;;;;;22.50;20.27;;;;;;;10.27;nan;100011.44;2065779;28;20769;-78
2022/07/18 02:02:45;;;;;;;22.13;19.77;;;;;;;10.24;nan;100003.16;2066293;28;20196;-77
2022/07/18 02:03:51;;;;;;;22.57;20.57;;;;;;;10.24;nan;100008.50;2065907;28;20675;-78
2022/07/18 02:05:00;;;;;;;21.92;19.92;;;;;;;10.20;nan;100008.22;2066847;28;20189;-77
2022/07/18 02:06:02;;;;;;;22.90;20.58;;;;;;;10.18;nan;100013.03;2074271;28;20260;-77
2022/07/18 02:07:04;;;;;;;22.67;20.63;;;;;;;10.14;nan;100017.31;2074876;28;20682;-77
2022/07/18 02:08:08;;;;;;;22.92;20.83;;;;;;;10.06;nan;100015.97;2065727;28;20228;-77
2022/07/18 02:09:09;;;;;;;22.58;20.48;;;;;;;10.05;nan;100009.03;2066292;28;20211;-77
2022/07/18 02:10:13;;;;;;;23.10;20.70;;;;;;;10.01;nan;100010.66;2074555;28;20195;-77
2022/07/18 02:11:14;;;;;;;23.05;20.83;;;;;;;10.00;nan;100010.94;2066197;28;20235;-78
2022/07/18 02:12:16;;;;;;;22.83;20.77;;;;;;;9.96;nan;100004.53;2065970;28;20769;-77
2022/07/18 02:13:19;;;;;;;22.30;20.38;;;;;;;9.96;nan;100009.84;2065790;28;20209;-77
2022/07/18 02:14:20;;;;;;;22.73;20.63;;;;;;;9.94;nan;100004.81;2066403;28;20235;-77
2022/07/18 02:15:23;;;;;;;23.30;20.90;;;;;;;9.96;nan;100010.66;2065549;28;20244;-77
2022/07/18 02:16:25;;;;;;;23.17;21.23;;;;;;;9.92;nan;99998.94;2057846;28;20260;-77
2022/07/18 02:17:27;;;;;;;24.92;21.33;;;;;;;9.92;nan;100001.63;2065869;28;20189;-77
2022/07/18 02:18:27;;;;;;;23.05;20.77;;;;;;;9.95;nan;100001.06;2065839;28;20204;-77
2022/07/18 02:19:29;;;;;;;22.60;20.43;;;;;;;9.98;nan;100007.72;2065878;28;20185;-77
2022/07/18 02:20:30;;;;;;;22.92;20.83;;;;;;;9.98;nan;100008.50;2066624;28;20228;-77
2022/07/18 02:21:31;;;;;;;23.30;20.93;;;;;;;9.99;nan;100007.47;2065237;28;20233;-78
2022/07/18 02:22:34;;;;;;;21.98;20.10;;;;;;;10.01;nan;100010.66;2065871;28;20276;-77
2022/07/18 02:23:38;;;;;;;22.33;20.25;;;;;;;10.00;nan;100001.06;2065840;28;20207;-77
2022/07/18 02:24:38;;;;;;;22.70;20.58;;;;;;;10.03;nan;100005.06;2065783;28;20193;-77
2022/07/18 02:25:40;;;;;;;21.83;19.90;;;;;;;10.00;nan;100008.28;2065809;28;20277;-77
2022/07/18 02:26:41;;;;;;;21.88;19.77;;;;;;;9.98;nan;100000.50;2066375;28;20272;-77
2022/07/18 02:27:43;;;;;;;22.33;20.37;;;;;;;9.97;nan;100006.91;2066379;28;20192;-77
2022/07/18 02:28:44;;;;;;;22.13;20.05;;;;;;;9.94;nan;100004.81;2065703;28;20204;-78
2022/07/18 02:29:47;;;;;;;21.60;19.57;;;;;;;9.93;nan;100008.53;2065839;28;20192;-78
2022/07/18 02:30:48;;;;;;;21.63;19.52;;;;;;;9.89;nan;100004.78;2065181;28;20216;-77
2022/07/18 02:31:50;;;;;;;21.77;19.77;;;;;;;9.87;nan;100006.94;2065748;28;20189;-77
2022/07/18 02:32:50;;;;;;;22.30;20.35;;;;;;;9.83;nan;100009.34;2066452;28;20281;-78
2022/07/18 02:33:52;;;;;;;22.10;20.20;;;;;;;9.81;nan;100014.13;2066302;28;20208;-77
2022/07/18 02:34:53;;;;;;;23.25;21.05;;;;;;;9.76;nan;100010.69;2065921;28;20247;-77
2022/07/18 02:35:57;;;;;;;21.58;19.67;;;;;;;9.75;nan;100017.06;2065172;28;20236;-77
2022/07/18 02:36:58;;;;;;;22.92;21.00;;;;;;;9.72;nan;100018.38;2065662;28;20217;-78
2022/07/18 02:38:01;;;;;;;23.10;20.90;;;;;;;9.68;nan;100016.53;2064951;28;20296;-78
2022/07/18 02:39:03;;;;;;;22.35;20.45;;;;;;;9.63;nan;100018.13;2065725;28;20201;-77
2022/07/18 02:40:07;;;;;;;23.23;21.13;;;;;;;9.63;nan;100018.13;2066269;28;20220;-78
2022/07/18 02:41:08;;;;;;;22.88;20.52;;;;;;;9.61;nan;100014.13;2066487;28;20205;-77
2022/07/18 02:42:15;;;;;;;22.57;20.23;;;;;;;9.61;nan;100016.78;2066212;28;20701;-77
2022/07/18 02:43:17;;;;;;;21.05;19.25;;;;;;;9.60;nan;100013.34;2066485;28;20217;-77
2022/07/18 02:44:19;;;;;;;22.05;19.85;;;;;;;9.57;nan;100016.53;2065603;28;20197;-77
2022/07/18 02:45:20;;;;;;;21.80;19.88;;;;;;;9.58;nan;100020.78;2065610;28;20236;-78
2022/07/18 02:46:21;;;;;;;24.30;19.50;;;;;;;9.56;nan;100022.94;2066342;28;20200;-77
2022/07/18 02:47:22;;;;;;;21.55;19.92;;;;;;;9.52;nan;100016.53;2066374;28;20200;-77
2022/07/18 02:48:23;;;;;;;21.20;19.40;;;;;;;9.52;nan;100023.72;2066288;28;20197;-77
2022/07/18 02:49:27;;;;;;;20.95;19.05;;;;;;;9.50;nan;100023.97;2065545;28;20284;-77
2022/07/18 02:50:33;;;;;;;20.23;18.60;;;;;;;9.49;nan;100013.59;2065881;28;20655;-77
2022/07/18 02:51:33;;;;;;;21.30;19.50;;;;;;;9.48;nan;100018.13;2064614;28;20298;-77
2022/07/18 02:52:35;;;;;;;21.60;19.73;;;;;;;9.47;nan;100013.03;2065633;28;20185;-77
2022/07/18 02:53:36;;;;;;;20.25;18.52;;;;;;;9.49;nan;100016.25;2065507;28;20201;-77
2022/07/18 02:54:39;;;;;;;20.80;18.80;;;;;;;9.48;nan;100012.00;2065602;28;20647;-77
2022/07/18 02:55:40;;;;;;;21.27;19.17;;;;;;;9.48;nan;100014.66;2065252;28;20233;-77
2022/07/18 02:56:42;;;;;;;20.37;18.47;;;;;;;9.47;nan;100011.22;2065802;28;20186;-77
2022/07/18 02:57:44;;;;;;;20.95;18.98;;;;;;;9.49;nan;100017.06;2065902;28;20197;-78
2022/07/18 02:58:45;;;;;;;20.23;18.73;;;;;;;9.46;nan;100009.56;2066416;28;20185;-77
2022/07/18 02:59:47;;;;;;;20.63;18.77;;;;;;;9.47;nan;100013.03;2065443;28;20193;-77
2022/07/18 03:00:47;;;;;;;20.42;18.70;;;;;;;9.52;nan;100016.53;2065619;28;20201;-77
2022/07/18 03:01:49;;;;;;;20.63;19.00;;;;;;;9.51;nan;100016.78;2066003;28;20694;-78
2022/07/18 03:02:53;;;;;;;21.40;19.50;;;;;;;9.48;nan;100020.00;2066123;28;20539;-78
2022/07/18 03:03:57;;;;;;;21.73;19.55;;;;;;;9.49;nan;100016.25;2066314;28;20204;-77
2022/07/18 03:04:59;;;;;;;23.02;20.20;;;;;;;9.49;nan;100018.94;2066045;28;20189;-75
2022/07/18 03:05:59;;;;;;;22.00;20.05;;;;;;;9.48;nan;100020.78;2065442;28;20227;-77
2022/07/18 03:07:01;;;;;;;21.00;19.10;;;;;;;9.50;nan;100029.31;2065387;28;20685;-77
2022/07/18 03:08:02;;;;;;;21.30;19.27;;;;;;;9.50;nan;100025.84;2064781;28;20232;-78
2022/07/18 03:09:04;;;;;;;22.83;20.50;;;;;;;9.49;nan;100025.06;2057338;28;20300;-77
2022/07/18 03:10:07;;;;;;;22.05;19.17;;;;;;;9.48;nan;100022.66;2057431;28;20296;-77
2022/07/18 03:11:11;;;;;;;22.35;19.95;;;;;;;9.49;nan;100026.91;2065470;28;20201;-77
2022/07/18 03:12:12;;;;;;;21.90;19.90;;;;;;;9.51;nan;100033.56;2066066;28;20200;-77
2022/07/18 03:13:13;;;;;;;21.70;19.60;;;;;;;9.53;nan;100028.78;2065313;28;20296;-77
2022/07/18 03:14:14;;;;;;;22.48;20.08;;;;;;;9.54;nan;100033.03;2065447;28;20197;-77
2022/07/18 03:15:16;;;;;;;22.93;20.37;;;;;;;9.57;nan;100034.38;2070798;28;20234;-77
2022/07/18 03:16:16;;;;;;;22.65;20.27;;;;;;;9.58;nan;100031.44;2074122;28;20231;-77
2022/07/18 03:17:19;;;;;;;22.40;20.27;;;;;;;9.60;nan;100033.84;2074151;28;20646;-78
2022/07/18 03:18:25;;;;;;;22.23;20.05;;;;;;;9.59;nan;100030.38;2065401;28;20185;-77
2022/07/18 03:19:27;;;;;;;23.33;20.90;;;;;;;9.59;nan;100038.38;2057570;28;20223;-77
2022/07/18 03:20:28;;;;;;;22.52;20.42;;;;;;;9.59;nan;100030.38;2065531;28;20200;-77
2022/07/18 03:21:29;;;;;;;22.30;20.00;;;;;;;9.61;nan;100036.25;2064481;28;20217;-77
2022/07/18 03:22:30;;;;;;;24.58;20.10;;;;;;;9.60;nan;100028.53;2065375;28;20240;-78
2022/07/18 03:23:32;;;;;;;22.00;19.80;;;;;;;9.61;nan;100035.44;2074312;28;20197;-78
2022/07/18 03:24:34;;;;;;;22.25;19.55;;;;;;;9.60;nan;100031.19;2065345;28;20220;-77
2022/07/18 03:25:37;;;;;;;24.33;20.02;;;;;;;9.60;nan;100037.31;2065428;28;20707;-77
2022/07/18 03:26:38;;;;;;;22.60;20.25;;;;;;;9.59;nan;100041.03;2065526;28;20264;-77
2022/07/18 03:27:40;;;;;;;21.93;19.90;;;;;;;9.62;nan;100035.19;2074074;28;20230;-77
2022/07/18 03:28:40;;;;;;;22.80;20.42;;;;;;;9.65;nan;100041.06;2065001;28;20232;-78
2022/07/18 03:29:42;;;;;;;21.97;19.80;;;;;;;9.70;nan;100041.03;2065614;28;20184;-77
2022/07/18 03:30:43;;;;;;;21.40;19.15;;;;;;;9.70;nan;100044.50;2065205;28;20200;-78
2022/07/18 03:31:45;;;;;;;23.33;20.10;;;;;;;9.71;nan;100046.09;2065334;28;20220;-78
2022/07/18 03:32:46;;;;;;;23.70;20.08;;;;;;;9.71;nan;100040.78;2065259;28;20197;-77
2022/07/18 03:33:47;;;;;;;25.63;19.77;;;;;;;9.74;nan;100044.78;2057240;28;20293;-77
2022/07/18 03:34:48;;;;;;;22.08;19.75;;;;;;;9.74;nan;100044.78;2057203;28;20719;-77
2022/07/18 03:35:49;;;;;;;22.13;19.80;;;;;;;9.74;nan;100040.25;2065375;28;20562;-77
2022/07/18 03:36:51;;;;;;;21.85;19.65;;;;;;;9.73;nan;100043.16;2064325;28;20606;-77
2022/07/18 03:37:52;;;;;;;22.15;19.77;;;;;;;9.74;nan;100042.13;2065423;28;20231;-77
2022/07/18 03:38:54;;;;;;;21.58;19.58;;;;;;;9.73;nan;100040.50;2074156;28;20231;-77
2022/07/18 03:39:56;;;;;;;22.33;20.02;;;;;;;9.74;nan;100039.47;2065328;28;20304;-77
2022/07/18 03:40:58;;;;;;;21.73;19.55;;;;;;;9.75;nan;100044.53;2065362;28;20220;-76
2022/07/18 03:42:00;;;;;;;23.45;19.73;;;;;;;9.76;nan;100042.66;2065189;28;20205;-77
2022/07/18 03:43:00;;;;;;;22.42;20.10;;;;;;;9.81;nan;100047.97;2056935;28;20209;-77
2022/07/18 03:44:02;;;;;;;27.70;20.13;;;;;;;9.80;nan;100047.16;2065374;28;20192;-77
2022/07/18 03:45:05;;;;;;;21.45;19.40;;;;;;;9.79;nan;100052.78;2074097;28;20283;-77
2022/07/18 03:46:12;;;;;;;22.02;19.73;;;;;;;9.79;nan;100047.44;2074054;28;20202;-78
2022/07/18 03:47:13;;;;;;;22.42;20.05;;;;;;;9.78;nan;100043.19;2074095;28;20246;-77
2022/07/18 03:48:14;;;;;;;23.40;20.60;;;;;;;9.81;nan;100048.78;2074104;28;20220;-78
2022/07/18 03:49:15;;;;;;;27.30;20.42;;;;;;;9.87;nan;100052.25;2065119;28;20736;-78
2022/07/18 03:50:17;;;;;;;21.60;19.50;;;;;;;9.88;nan;100045.84;2065177;28;20197;-77
2022/07/18 03:51:18;;;;;;;22.40;19.50;;;;;;;9.91;nan;100050.66;2064779;28;20688;-78
2022/07/18 03:52:21;;;;;;;23.45;19.58;;;;;;;9.88;nan;100048.50;2073936;28;20226;-77
2022/07/18 03:53:22;;;;;;;22.45;19.85;;;;;;;9.92;nan;100049.59;2065185;28;20758;-77
2022/07/18 03:54:24;;;;;;;21.83;19.80;;;;;;;9.93;nan;100053.06;2065451;28;20260;-77
2022/07/18 03:55:24;;;;;;;22.35;20.33;;;;;;;9.93;nan;100047.72;2074045;28;20196;-77
2022/07/18 03:56:27;;;;;;;20.93;19.03;;;;;;;9.95;nan;100056.25;2065166;28;20677;-76
2022/07/18 03:57:28;;;;;;;21.35;19.08;;;;;;;9.95;nan;100049.03;2065405;28;20185;-77
2022/07/18 03:58:30;;;;;;;22.20;19.87;;;;;;;9.95;nan;100051.72;2073892;28;20187;-76
2022/07/18 03:59:33;;;;;;;21.65;19.60;;;;;;;9.99;nan;100052.78;2073956;28;20275;-77
2022/07/18 04:00:35;;;;;;;22.13;20.02;;;;;;;10.01;nan;100056.00;2073905;28;20195;-77
2022/07/18 04:01:35;;;;;;;21.58;19.58;;;;;;;10.01;nan;100057.84;2073922;28;20212;-77
2022/07/18 04:02:39;;;;;;;23.23;19.87;;;;;;;10.04;nan;100058.09;2065191;28;20264;-77
2022/07/18 04:03:40;;;;;;;21.23;19.13;;;;;;;10.07;nan;100059.44;2057446;28;20193;-77
2022/07/18 04:04:41;;;;;;;21.30;19.13;;;;;;;10.07;nan;100057.56;2065419;28;20683;-76
2022/07/18 04:05:42;;;;;;;19.92;18.17;;;;;;;10.10;nan;100056.25;2073232;28;20259;-77
2022/07/18 04:06:44;;;;;;;20.77;18.80;;;;;;;10.12;nan;100057.56;2073026;28;20228;-76
2022/07/18 04:07:44;;;;;;;21.15;18.98;;;;;;;10.14;nan;100058.09;2073852;28;20216;-77
2022/07/18 04:08:46;;;;;;;21.00;19.00;;;;;;;10.17;nan;100056.78;2073906;28;20184;-77
2022/07/18 04:09:46;;;;;;;21.67;19.58;;;;;;;10.17;nan;100054.91;2074380;28;20195;-77
2022/07/18 04:10:48;;;;;;;20.87;18.97;;;;;;;10.22;nan;100055.97;2075541;28;20198;-77
2022/07/18 04:11:50;;;;;;;20.25;18.20;;;;;;;10.20;nan;100054.38;2066723;28;20650;-77
2022/07/18 04:12:55;;;;;;;21.33;19.15;;;;;;;10.24;nan;100051.19;2066898;28;20582;-77
2022/07/18 04:13:57;;;;;;;22.27;18.83;;;;;;;10.27;nan;100059.47;2066748;28;20256;-77
2022/07/18 04:14:58;;;;;;;21.20;19.20;;;;;;;10.28;nan;100055.72;2066653;28;20220;-77
2022/07/18 04:15:59;;;;;;;20.77;18.80;;;;;;;10.32;nan;100061.31;2075795;28;20185;-77
2022/07/18 04:17:00;;;;;;;20.42;18.27;;;;;;;10.35;nan;100066.13;2075574;28;20239;-77
2022/07/18 04:18:01;;;;;;;21.60;19.23;;;;;;;10.39;nan;100067.16;2075495;28;20195;-76
2022/07/18 04:19:03;;;;;;;20.67;18.65;;;;;;;10.40;nan;100061.56;2075429;28;20281;-76
2022/07/18 04:20:05;;;;;;;20.55;18.52;;;;;;;10.43;nan;100060.25;2066695;28;20201;-76
2022/07/18 04:21:07;;;;;;;23.13;19.58;;;;;;;10.45;nan;100055.44;2066455;28;20597;-76
2022/07/18 04:22:08;;;;;;;20.65;18.80;;;;;;;10.48;nan;100054.88;2075667;28;20208;-76
2022/07/18 04:23:10;;;;;;;21.00;19.00;;;;;;;10.51;nan;100062.31;2066568;28;20216;-76
2022/07/18 04:24:11;;;;;;;19.80;17.98;;;;;;;10.53;nan;100062.88;2066656;28;20204;-77
2022/07/18 04:25:13;;;;;;;21.53;19.43;;;;;;;10.57;nan;100069.25;2066804;28;20192;-76
2022/07/18 04:26:15;;;;;;;20.25;18.40;;;;;;;10.61;nan;100058.88;2075374;28;20629;-76
2022/07/18 04:27:18;;;;;;;21.02;18.88;;;;;;;10.61;nan;100058.88;2075413;28;20250;-76
2022/07/18 04:28:20;;;;;;;21.55;19.52;;;;;;;10.65;nan;100062.56;2075502;28;20196;-76
2022/07/18 04:29:21;;;;;;;20.58;18.65;;;;;;;10.69;nan;100055.63;2075428;28;20204;-76
2022/07/18 04:30:23;;;;;;;20.42;18.63;;;;;;;10.75;nan;100055.31;2066570;28;20618;-76
2022/07/18 04:31:25;;;;;;;20.33;18.33;;;;;;;10.76;nan;100062.25;2066615;28;20192;-76
2022/07/18 04:32:25;;;;;;;20.65;18.52;;;;;;;10.80;nan;100062.53;2066948;28;20221;-76
2022/07/18 04:33:29;;;;;;;19.33;17.73;;;;;;;10.81;nan;100053.44;2075478;28;20229;-77
2022/07/18 04:34:30;;;;;;;19.45;17.65;;;;;;;10.86;nan;100063.28;2075343;28;20723;-77
2022/07/18 04:35:35;;;;;;;22.00;18.57;;;;;;;10.91;nan;100069.41;2075370;28;20559;-76
2022/07/18 04:36:37;;;;;;;19.67;17.77;;;;;;;10.95;nan;100069.69;2074907;28;20230;-76
2022/07/18 04:37:38;;;;;;;19.67;17.98;;;;;;;11.01;nan;100071.25;2075531;28;20254;-76
2022/07/18 04:38:41;;;;;;;19.80;18.10;;;;;;;11.05;nan;100064.31;2075327;28;20180;-76
2022/07/18 04:39:42;;;;;;;19.92;18.27;;;;;;;11.08;nan;100063.75;2075335;28;20196;-76
2022/07/18 04:40:45;;;;;;;20.27;18.42;;;;;;;11.15;nan;100069.59;2066606;28;20201;-77
2022/07/18 04:41:47;;;;;;;22.38;18.33;;;;;;;11.19;nan;100065.28;2066739;28;20201;-76
2022/07/18 04:42:50;;;;;;;20.15;18.33;;;;;;;11.25;nan;100066.88;2075456;28;20244;-76
2022/07/18 04:43:51;;;;;;;20.50;18.80;;;;;;;11.30;nan;100063.38;2066797;28;20303;-76
2022/07/18 04:44:52;;;;;;;20.53;18.53;;;;;;;11.37;nan;100071.06;2066707;28;20196;-76
2022/07/18 04:45:54;;;;;;;21.67;19.35;;;;;;;11.42;nan;100071.84;2066138;28;20201;-76
2022/07/18 04:46:56;;;;;;;22.90;20.08;;;;;;;11.45;nan;100067.81;2066624;28;20590;-76
2022/07/18 04:48:01;;;;;;;22.48;20.38;;;;;;;11.48;nan;100062.75;2075328;28;20242;-76
2022/07/18 04:49:02;;;;;;;23.10;20.70;;;;;;;11.56;nan;100064.03;2075380;28;20265;-76
2022/07/18 04:50:05;;;;;;;23.93;20.63;;;;;;;11.59;nan;100064.25;2075203;28;20208;-76
2022/07/18 04:51:06;;;;;;;23.27;21.15;;;;;;;11.67;nan;100062.06;2074680;28;20287;-76
2022/07/18 04:52:07;;;;;;;22.07;20.00;;;;;;;11.71;nan;100066.56;2075249;28;20181;-76